Time;durP1;ratioP1;P1;durP2;ratioP2;P2;SDS_P1;SDS_P2;PMS_P1;PMS_P2;Temp;Humidity;BMP_temperature;BMP_pressure;BME280_temperature;BME280_humidity;BME280_pressure;Samples;Min_cycle;Max_cycle;Signal;HPM_P1;HPM_P2
2021/12/01 00:00:44;;;;;;;3.33;1.47;;;7.20;99.90;;;;;;5051634;28;20456;-76
2021/12/01 00:03:10;;;;;;;1.53;1.43;;;7.30;99.90;;;;;;5037252;28;20465;-76
2021/12/01 00:05:37;;;;;;;1.40;1.30;;;7.30;99.90;;;;;;5045048;28;20484;-76
2021/12/01 00:08:05;;;;;;;1.30;1.20;;;7.30;99.90;;;;;;5051553;28;20456;-76
2021/12/01 00:10:34;;;;;;;1.30;1.20;;;7.30;99.90;;;;;;5052182;28;20916;-76
2021/12/01 00:13:01;;;;;;;1.27;1.17;;;7.30;99.90;;;;;;5047356;28;21047;-76
2021/12/01 00:15:29;;;;;;;1.20;1.10;;;7.30;99.90;;;;;;5051652;28;20523;-76
2021/12/01 00:17:56;;;;;;;1.57;1.20;;;7.30;99.90;;;;;;5049608;28;20456;-76
2021/12/01 00:20:23;;;;;;;1.20;1.10;;;7.30;99.90;;;;;;5037815;28;20514;-76
2021/12/01 00:22:50;;;;;;;1.30;1.20;;;7.30;99.90;;;;;;5051186;28;20468;-77
2021/12/01 00:25:18;;;;;;;1.50;1.40;;;7.30;99.90;;;;;;5051273;28;20892;-76
2021/12/01 00:27:46;;;;;;;1.30;1.20;;;7.30;99.90;;;;;;5051637;28;20457;-76
2021/12/01 00:30:13;;;;;;;1.40;1.30;;;7.30;99.90;;;;;;5035880;28;20449;-76
2021/12/01 00:32:41;;;;;;;2.27;1.20;;;7.30;99.90;;;;;;5051396;28;20533;-76
2021/12/01 00:35:09;;;;;;;1.43;1.33;;;7.30;99.90;;;;;;5033854;28;20515;-76
2021/12/01 00:37:37;;;;;;;1.30;1.20;;;7.30;99.90;;;;;;5032399;28;20516;-76
2021/12/01 00:40:04;;;;;;;1.50;1.40;;;7.30;99.90;;;;;;5038861;28;20522;-76
2021/12/01 00:42:32;;;;;;;1.60;1.50;;;7.30;99.90;;;;;;5051776;28;20476;-77
2021/12/01 00:45:00;;;;;;;1.40;1.30;;;7.20;99.90;;;;;;5050803;28;20571;-77
2021/12/01 00:47:41;;;;;;;2.03;1.37;;;7.20;99.90;;;;;;5033636;28;20856;-77
2021/12/01 00:50:10;;;;;;;1.40;1.30;;;7.20;99.90;;;;;;5031985;28;20461;-77
2021/12/01 00:52:37;;;;;;;3.20;1.50;;;7.20;99.90;;;;;;5032491;28;20473;-77
2021/12/01 00:55:05;;;;;;;1.70;1.60;;;7.10;99.90;;;;;;5047383;28;20450;-77
2021/12/01 00:57:31;;;;;;;2.07;1.40;;;7.10;99.90;;;;;;5031805;28;20466;-77
2021/12/01 00:59:58;;;;;;;5.77;1.53;;;7.10;99.90;;;;;;5040155;28;20453;-77
2021/12/01 01:02:25;;;;;;;1.63;1.53;;;7.10;99.90;;;;;;5036273;28;21010;-77
2021/12/01 01:04:51;;;;;;;1.37;1.27;;;7.00;99.90;;;;;;5050652;28;20465;-77
2021/12/01 01:07:19;;;;;;;1.70;1.60;;;7.00;99.90;;;;;;5050937;28;20448;-77
2021/12/01 01:09:46;;;;;;;1.60;1.50;;;7.00;99.90;;;;;;5043532;28;20449;-77
2021/12/01 01:17:46;;;;;;;1.70;1.60;;;6.90;99.90;;;;;;5042730;28;20931;-76
2021/12/01 01:20:14;;;;;;;1.63;1.53;;;6.90;99.90;;;;;;5047688;28;20457;-77
2021/12/01 01:22:42;;;;;;;1.50;1.40;;;6.90;99.90;;;;;;5033626;28;21078;-77
2021/12/01 01:25:10;;;;;;;1.50;1.40;;;6.90;99.90;;;;;;5040826;28;20945;-76
2021/12/01 01:27:37;;;;;;;1.50;1.40;;;6.90;99.90;;;;;;5049440;28;20479;-77
2021/12/01 01:30:05;;;;;;;1.50;1.40;;;6.80;99.90;;;;;;5049029;28;20460;-76
2021/12/01 01:32:33;;;;;;;1.60;1.50;;;6.80;99.90;;;;;;5031063;28;20481;-76
2021/12/01 01:35:00;;;;;;;1.60;1.50;;;6.80;99.90;;;;;;5031132;28;20454;-76
2021/12/01 01:37:27;;;;;;;1.80;1.70;;;6.80;99.90;;;;;;5043532;28;20951;-76
2021/12/01 01:39:55;;;;;;;1.40;1.30;;;6.80;99.90;;;;;;5050696;28;20960;-77
2021/12/01 01:42:22;;;;;;;1.50;1.40;;;6.80;99.90;;;;;;5038112;28;20993;-76
2021/12/01 01:44:48;;;;;;;1.60;1.50;;;6.90;99.90;;;;;;5035243;28;20900;-76
2021/12/01 01:47:15;;;;;;;1.90;1.60;;;6.90;99.90;;;;;;5046987;28;20488;-76
2021/12/01 01:49:49;;;;;;;1.90;1.80;;;7.00;99.90;;;;;;5037328;28;20464;-76
2021/12/01 01:52:16;;;;;;;1.37;1.27;;;6.90;99.90;;;;;;5050066;28;20815;-76
2021/12/01 01:54:42;;;;;;;1.70;1.60;;;6.90;99.90;;;;;;5050820;28;20452;-76
2021/12/01 01:57:11;;;;;;;1.60;1.50;;;6.90;99.90;;;;;;5047867;28;21039;-76
2021/12/01 01:59:38;;;;;;;1.80;1.70;;;6.90;99.90;;;;;;5038076;28;20448;-76
2021/12/01 02:02:05;;;;;;;1.83;1.73;;;6.90;99.90;;;;;;5050429;28;20980;-76
2021/12/01 02:04:34;;;;;;;2.07;1.93;;;6.90;99.90;;;;;;5050398;28;20460;-76
2021/12/01 02:07:01;;;;;;;2.73;1.83;;;6.90;99.90;;;;;;5049742;28;21088;-76
2021/12/01 02:09:28;;;;;;;2.17;2.00;;;6.90;99.90;;;;;;5050271;28;20452;-76
2021/12/01 02:11:58;;;;;;;1.70;1.60;;;6.90;99.90;;;;;;5050069;28;20480;-74
2021/12/01 02:14:28;;;;;;;2.10;2.00;;;6.80;99.90;;;;;;5041360;28;20449;-76
2021/12/01 02:16:56;;;;;;;1.80;1.70;;;6.80;99.90;;;;;;5050701;28;20448;-76
2021/12/01 02:19:23;;;;;;;1.83;1.73;;;6.80;99.90;;;;;;5049094;28;20659;-76
2021/12/01 02:21:52;;;;;;;1.50;1.40;;;6.80;99.90;;;;;;5050230;28;20518;-76
2021/12/01 02:24:22;;;;;;;1.73;1.63;;;6.80;99.90;;;;;;5031023;28;20457;-77
2021/12/01 02:26:51;;;;;;;1.90;1.80;;;6.80;99.90;;;;;;5036462;28;20590;-76
2021/12/01 02:29:20;;;;;;;1.73;1.63;;;6.80;99.90;;;;;;5047306;28;20969;-77
2021/12/01 02:31:47;;;;;;;3.73;1.60;;;6.80;99.90;;;;;;5035111;28;20881;-76
2021/12/01 02:34:18;;;;;;;2.10;1.90;;;6.80;99.90;;;;;;5034117;28;20465;-76
2021/12/01 02:36:47;;;;;;;2.37;2.10;;;6.80;99.90;;;;;;5053377;28;21028;-76
2021/12/01 02:39:16;;;;;;;1.70;1.60;;;6.70;99.90;;;;;;5053707;28;20444;-76
2021/12/01 02:41:45;;;;;;;2.50;2.00;;;6.70;99.90;;;;;;5038704;28;20544;-76
2021/12/01 02:44:12;;;;;;;2.10;2.00;;;6.70;99.90;;;;;;5046178;28;20878;-76
2021/12/01 02:46:39;;;;;;;2.00;1.90;;;6.60;99.90;;;;;;5043152;28;20579;-75
2021/12/01 02:49:07;;;;;;;2.10;1.90;;;6.50;99.90;;;;;;5053431;28;20453;-76
2021/12/01 02:51:36;;;;;;;2.10;2.00;;;6.60;99.90;;;;;;5053028;28;20461;-75
2021/12/01 02:54:04;;;;;;;2.00;1.90;;;6.50;99.90;;;;;;5052773;28;20457;-75
2021/12/01 02:56:33;;;;;;;1.93;1.83;;;6.50;99.90;;;;;;5052857;28;20475;-76
2021/12/01 02:59:01;;;;;;;2.50;1.87;;;6.50;99.90;;;;;;5053263;28;20516;-75
2021/12/01 03:01:29;;;;;;;2.00;1.90;;;6.40;99.90;;;;;;5041533;28;20453;-75
2021/12/01 03:03:57;;;;;;;2.03;1.83;;;6.40;99.90;;;;;;5036134;28;20496;-76
2021/12/01 03:06:26;;;;;;;1.87;1.77;;;6.40;99.90;;;;;;5049183;28;20477;-75
2021/12/01 03:08:53;;;;;;;2.10;2.00;;;6.30;99.90;;;;;;5035635;28;20484;-75
2021/12/01 03:11:20;;;;;;;1.73;1.63;;;6.30;99.90;;;;;;5049554;28;20857;-76
2021/12/01 03:13:48;;;;;;;1.70;1.60;;;6.30;99.90;;;;;;5038425;28;20481;-76
2021/12/01 03:16:15;;;;;;;1.70;1.60;;;6.30;99.90;;;;;;5049411;28;20446;-75
2021/12/01 03:18:43;;;;;;;1.70;1.60;;;6.30;99.90;;;;;;5040235;28;20825;-76
2021/12/01 03:21:10;;;;;;;1.67;1.57;;;6.20;99.90;;;;;;5042515;28;20828;-76
2021/12/01 03:23:37;;;;;;;1.10;1.00;;;6.20;99.90;;;;;;5037760;28;20468;-76
2021/12/01 03:26:04;;;;;;;1.40;1.30;;;6.20;99.90;;;;;;5052272;28;20488;-75
2021/12/01 03:28:31;;;;;;;1.57;1.47;;;6.20;99.90;;;;;;5047883;28;20453;-75
2021/12/01 03:30:59;;;;;;;1.37;1.27;;;6.20;99.90;;;;;;5052942;28;20457;-76
2021/12/01 03:33:25;;;;;;;1.53;1.20;;;6.10;99.90;;;;;;5052619;28;20484;-76
2021/12/01 03:35:53;;;;;;;1.30;1.20;;;6.10;99.90;;;;;;5051623;28;20534;-75
2021/12/01 03:38:25;;;;;;;1.33;1.23;;;6.10;99.90;;;;;;5051927;28;20809;-75
2021/12/01 03:40:51;;;;;;;1.30;1.20;;;6.10;99.90;;;;;;5052895;28;20456;-75
2021/12/01 03:43:18;;;;;;;1.30;1.20;;;6.10;99.90;;;;;;5052275;28;20476;-76
2021/12/01 03:45:45;;;;;;;2.70;1.30;;;6.10;99.90;;;;;;5051737;28;20441;-75
2021/12/01 03:48:14;;;;;;;1.30;1.20;;;6.10;99.90;;;;;;5053155;28;20456;-76
2021/12/01 03:50:41;;;;;;;2.90;1.30;;;6.10;99.90;;;;;;5051729;28;20464;-75
2021/12/01 03:53:09;;;;;;;1.37;1.27;;;6.00;99.90;;;;;;5041945;28;20477;-76
2021/12/01 03:55:36;;;;;;;1.00;0.90;;;6.00;99.90;;;;;;5048411;28;20475;-75
2021/12/01 03:58:03;;;;;;;1.40;1.30;;;6.00;99.90;;;;;;5052516;28;20448;-76
2021/12/01 04:00:30;;;;;;;2.20;1.30;;;5.90;99.90;;;;;;5051888;28;20972;-76
2021/12/01 04:02:56;;;;;;;1.40;1.30;;;5.90;99.90;;;;;;5032595;28;20816;-76
2021/12/01 04:05:24;;;;;;;1.40;1.30;;;5.90;99.90;;;;;;5045203;28;20490;-76
2021/12/01 04:07:51;;;;;;;1.20;1.10;;;5.90;99.90;;;;;;5047944;28;20484;-75
2021/12/01 04:10:19;;;;;;;1.50;1.40;;;5.90;99.90;;;;;;5052562;28;20506;-75
2021/12/01 04:12:46;;;;;;;1.40;1.30;;;5.90;99.90;;;;;;5052395;28;20464;-76
2021/12/01 04:15:14;;;;;;;1.30;1.20;;;5.80;99.90;;;;;;5049410;28;20474;-75
2021/12/01 04:17:42;;;;;;;1.30;1.20;;;5.80;99.90;;;;;;5051851;28;20445;-76
2021/12/01 04:20:11;;;;;;;1.50;1.40;;;5.80;99.90;;;;;;5045777;28;20480;-76
2021/12/01 04:22:39;;;;;;;1.63;1.50;;;5.70;99.90;;;;;;5052341;28;20567;-76
2021/12/01 04:25:07;;;;;;;2.30;1.53;;;5.70;99.90;;;;;;5051297;28;20448;-76
2021/12/01 04:27:34;;;;;;;1.63;1.53;;;5.70;99.90;;;;;;5051463;28;20476;-75
2021/12/01 04:30:01;;;;;;;1.40;1.30;;;5.70;99.90;;;;;;5045007;28;20445;-75
2021/12/01 04:32:28;;;;;;;1.63;1.40;;;5.70;99.90;;;;;;5041343;28;20484;-75
2021/12/01 04:34:56;;;;;;;1.63;1.53;;;5.70;99.90;;;;;;5045941;28;20961;-75
2021/12/01 04:37:23;;;;;;;1.70;1.60;;;5.70;99.90;;;;;;5031453;28;20861;-75
2021/12/01 04:39:51;;;;;;;2.03;1.90;;;5.70;99.90;;;;;;5042941;28;20881;-75
2021/12/01 04:42:17;;;;;;;1.80;1.70;;;5.70;99.90;;;;;;5051869;28;20495;-75
2021/12/01 04:44:44;;;;;;;1.83;1.73;;;5.70;99.90;;;;;;5047904;28;20458;-75
2021/12/01 04:47:14;;;;;;;1.77;1.67;;;5.70;99.90;;;;;;5039607;28;20472;-75
2021/12/01 04:49:42;;;;;;;2.00;1.90;;;5.70;99.90;;;;;;5041842;28;20450;-75
2021/12/01 04:52:10;;;;;;;2.00;1.90;;;5.60;99.90;;;;;;5045742;28;20464;-75
2021/12/01 04:54:38;;;;;;;1.97;1.73;;;5.60;99.90;;;;;;5051143;28;20448;-76
2021/12/01 04:57:07;;;;;;;2.10;2.00;;;5.60;99.90;;;;;;5037161;28;20463;-75
2021/12/01 04:59:34;;;;;;;1.80;1.70;;;5.60;99.90;;;;;;5042739;28;20460;-75
2021/12/01 05:02:01;;;;;;;3.07;2.40;;;5.50;99.90;;;;;;5050049;28;21051;-75
2021/12/01 05:04:28;;;;;;;2.27;2.07;;;5.60;99.90;;;;;;5045424;28;20449;-75
2021/12/01 05:06:55;;;;;;;2.40;2.27;;;5.60;99.90;;;;;;5050777;28;20485;-75
2021/12/01 05:09:22;;;;;;;3.63;2.27;;;5.60;99.90;;;;;;5034859;28;20507;-75
2021/12/01 05:11:48;;;;;;;2.20;2.00;;;5.60;99.90;;;;;;5031799;28;20511;-74
2021/12/01 05:14:16;;;;;;;2.10;2.00;;;5.60;99.90;;;;;;5036333;28;20456;-75
2021/12/01 05:16:43;;;;;;;2.30;2.20;;;5.70;99.90;;;;;;5048156;28;20517;-75
2021/12/01 05:19:11;;;;;;;2.50;2.30;;;5.70;99.90;;;;;;5031476;28;20460;-75
2021/12/01 05:21:38;;;;;;;2.20;2.10;;;5.70;99.90;;;;;;5047073;28;20457;-75
2021/12/01 05:24:05;;;;;;;2.60;2.40;;;5.70;99.90;;;;;;5034542;28;20453;-75
2021/12/01 05:26:32;;;;;;;2.50;2.30;;;5.70;99.90;;;;;;5050372;28;20514;-75
2021/12/01 05:28:59;;;;;;;3.83;2.87;;;5.70;99.90;;;;;;5040382;28;20453;-75
2021/12/01 05:31:27;;;;;;;2.70;2.50;;;5.70;99.90;;;;;;5046062;28;20461;-75
2021/12/01 05:33:53;;;;;;;2.60;2.40;;;5.70;99.90;;;;;;5079090;22;20896;-70
2021/12/01 05:36:20;;;;;;;2.80;2.60;;;5.70;99.90;;;;;;5070191;28;20512;-70
2021/12/01 05:38:47;;;;;;;2.50;2.30;;;5.70;99.90;;;;;;5065199;28;20498;-70
2021/12/01 05:41:14;;;;;;;2.60;2.40;;;5.70;99.90;;;;;;5051174;28;20490;-72
2021/12/01 05:43:41;;;;;;;2.50;2.30;;;5.70;99.90;;;;;;5066680;28;20541;-71
2021/12/01 05:46:07;;;;;;;4.40;2.50;;;5.70;99.90;;;;;;5069541;28;20924;-70
2021/12/01 05:48:36;;;;;;;2.57;2.37;;;5.70;99.90;;;;;;5070174;28;20994;-70
2021/12/01 05:51:02;;;;;;;2.70;2.50;;;5.70;99.90;;;;;;5072905;28;20452;-70
2021/12/01 05:53:29;;;;;;;2.20;2.10;;;5.70;99.90;;;;;;5089917;28;20535;-70
2021/12/01 05:55:56;;;;;;;2.60;2.50;;;5.70;99.90;;;;;;5069985;28;20501;-72
2021/12/01 05:58:23;;;;;;;2.37;2.27;;;5.70;99.90;;;;;;5071183;28;20463;-70
2021/12/01 06:00:49;;;;;;;2.60;2.50;;;5.70;99.90;;;;;;5071470;28;20482;-70
2021/12/01 06:03:17;;;;;;;2.70;2.50;;;5.70;99.90;;;;;;5074332;28;20500;-71
2021/12/01 06:05:45;;;;;;;2.80;2.57;;;5.60;99.90;;;;;;5072307;28;21005;-70
2021/12/01 06:08:12;;;;;;;2.67;2.47;;;5.60;99.90;;;;;;5074566;28;20828;-70
2021/12/01 06:10:40;;;;;;;2.33;2.23;;;5.60;99.90;;;;;;5071966;28;20447;-71
2021/12/01 06:13:07;;;;;;;2.90;2.60;;;5.60;99.90;;;;;;5074707;28;20479;-72
2021/12/01 06:15:34;;;;;;;2.10;2.00;;;5.60;99.90;;;;;;5073399;28;20447;-71
2021/12/01 06:18:01;;;;;;;2.40;2.30;;;5.60;99.90;;;;;;5074261;28;20451;-71
2021/12/01 06:20:28;;;;;;;2.73;2.53;;;5.60;99.90;;;;;;5073451;28;20947;-70
2021/12/01 06:22:56;;;;;;;2.87;2.67;;;5.70;99.90;;;;;;5074132;28;20471;-70
2021/12/01 06:25:23;;;;;;;2.33;2.20;;;5.70;99.90;;;;;;5073766;28;20474;-72
2021/12/01 06:27:50;;;;;;;2.80;2.37;;;5.70;99.90;;;;;;5074063;28;21107;-71
2021/12/01 06:30:16;;;;;;;2.93;2.67;;;5.70;99.90;;;;;;5074518;28;20864;-71
2021/12/01 06:32:43;;;;;;;2.13;2.00;;;5.70;99.90;;;;;;5073748;28;20540;-69
2021/12/01 06:35:10;;;;;;;2.27;2.17;;;5.70;99.90;;;;;;5073809;28;20443;-69
2021/12/01 06:37:37;;;;;;;2.03;1.93;;;5.80;99.90;;;;;;5074021;28;21064;-68
2021/12/01 06:40:07;;;;;;;2.40;2.20;;;5.80;99.90;;;;;;5057804;28;20452;-68
2021/12/01 06:42:35;;;;;;;3.20;2.10;;;5.80;99.90;;;;;;5074038;28;20510;-71
2021/12/01 06:45:02;;;;;;;1.80;1.70;;;5.80;99.90;;;;;;5073094;28;20455;-69
2021/12/01 06:47:29;;;;;;;2.57;2.17;;;5.80;99.90;;;;;;5073600;28;20483;-68
2021/12/01 06:49:56;;;;;;;2.30;2.20;;;5.80;99.90;;;;;;5074039;28;20455;-69
2021/12/01 06:52:23;;;;;;;2.27;2.07;;;5.80;99.90;;;;;;5073656;28;21006;-69
2021/12/01 06:54:49;;;;;;;1.90;1.80;;;5.90;99.90;;;;;;5072774;28;20892;-69
2021/12/01 06:57:17;;;;;;;5.30;1.90;;;5.90;99.90;;;;;;5074169;28;20443;-69
2021/12/01 06:59:44;;;;;;;3.70;2.20;;;5.90;99.90;;;;;;5073387;28;20452;-68
2021/12/01 07:02:11;;;;;;;2.53;2.20;;;5.90;99.90;;;;;;5073482;28;20467;-69
2021/12/01 07:04:37;;;;;;;2.63;2.43;;;5.90;99.90;;;;;;5079187;28;20863;-67
2021/12/01 07:07:05;;;;;;;2.17;2.07;;;5.90;99.90;;;;;;5074273;28;20525;-67
2021/12/01 07:09:32;;;;;;;2.40;2.20;;;6.00;99.90;;;;;;5078463;28;20504;-67
2021/12/01 07:11:58;;;;;;;2.80;2.60;;;6.00;99.90;;;;;;5073867;28;20459;-68
2021/12/01 07:14:27;;;;;;;2.33;2.17;;;6.00;99.90;;;;;;5072902;28;20466;-68
2021/12/01 07:16:54;;;;;;;3.70;2.40;;;6.00;99.90;;;;;;5057635;28;20451;-68
2021/12/01 07:19:22;;;;;;;2.73;2.50;;;6.10;99.90;;;;;;5073623;28;20582;-68
2021/12/01 07:21:49;;;;;;;2.77;2.57;;;6.10;99.90;;;;;;5072174;28;20452;-69
2021/12/01 07:24:16;;;;;;;2.73;2.53;;;6.10;99.90;;;;;;5073168;28;20456;-68
2021/12/01 07:26:43;;;;;;;2.50;2.40;;;6.10;99.90;;;;;;5072611;28;20505;-67
2021/12/01 07:29:10;;;;;;;2.43;2.30;;;6.10;99.90;;;;;;5073321;28;21060;-68
2021/12/01 07:31:38;;;;;;;3.53;2.63;;;6.10;99.90;;;;;;5073542;28;20471;-68
2021/12/01 07:34:04;;;;;;;2.73;2.53;;;6.10;99.90;;;;;;5072181;28;20479;-69
2021/12/01 07:36:31;;;;;;;2.33;2.20;;;6.10;99.90;;;;;;5072876;28;21000;-68
2021/12/01 07:38:59;;;;;;;3.53;3.20;;;6.10;99.90;;;;;;5073985;28;20870;-68
2021/12/01 07:41:26;;;;;;;3.07;2.80;;;6.10;99.90;;;;;;5067981;28;20995;-68
2021/12/01 07:43:53;;;;;;;3.10;2.80;;;6.10;99.90;;;;;;5067413;28;20890;-67
2021/12/01 07:46:20;;;;;;;2.77;2.57;;;6.00;99.90;;;;;;5071884;28;20513;-68
2021/12/01 07:48:48;;;;;;;3.63;3.17;;;6.00;99.90;;;;;;5072283;28;20479;-69
2021/12/01 07:51:15;;;;;;;3.40;2.93;;;6.00;99.90;;;;;;5073981;28;20877;-68
2021/12/01 07:53:42;;;;;;;2.60;2.50;;;6.00;99.90;;;;;;5072186;28;20502;-68
2021/12/01 07:56:09;;;;;;;2.37;2.17;;;6.00;99.90;;;;;;5072123;28;20452;-69
2021/12/01 07:58:36;;;;;;;3.77;3.10;;;6.00;99.90;;;;;;5071944;28;20444;-69
2021/12/01 08:01:03;;;;;;;4.43;2.70;;;6.00;99.90;;;;;;5070976;28;20482;-67
2021/12/01 08:03:29;;;;;;;2.67;2.50;;;5.90;99.90;;;;;;5070811;28;20529;-69
2021/12/01 08:05:57;;;;;;;4.03;3.50;;;5.90;99.90;;;;;;5071253;28;20501;-69
2021/12/01 08:08:24;;;;;;;2.60;2.43;;;5.90;99.90;;;;;;5071257;28;20487;-68
2021/12/01 08:10:51;;;;;;;3.90;3.33;;;5.90;99.90;;;;;;5070099;28;20447;-67
2021/12/01 08:13:18;;;;;;;3.87;3.53;;;6.00;99.90;;;;;;5074019;28;20594;-69
2021/12/01 08:15:47;;;;;;;3.50;3.30;;;5.90;99.90;;;;;;5070292;28;20455;-70
2021/12/01 08:18:14;;;;;;;3.47;3.17;;;5.90;99.90;;;;;;5071509;28;20990;-69
2021/12/01 08:20:41;;;;;;;5.80;3.50;;;5.90;99.90;;;;;;5070485;28;20522;-69
2021/12/01 08:23:09;;;;;;;3.60;3.30;;;5.90;99.90;;;;;;5072313;28;20537;-69
2021/12/01 08:25:36;;;;;;;3.70;3.40;;;5.90;99.90;;;;;;5071926;28;20459;-70
2021/12/01 08:28:04;;;;;;;3.50;3.20;;;5.90;99.90;;;;;;5079787;28;21002;-70
2021/12/01 08:30:31;;;;;;;3.83;3.23;;;5.90;99.90;;;;;;5070441;28;20964;-69
2021/12/01 08:32:58;;;;;;;5.43;3.10;;;5.90;99.90;;;;;;5076713;28;21275;-69
2021/12/01 08:35:25;;;;;;;4.23;3.13;;;5.90;99.90;;;;;;5065558;28;20460;-70
2021/12/01 08:37:52;;;;;;;3.27;2.97;;;5.90;99.90;;;;;;5068477;28;20451;-69
2021/12/01 08:40:20;;;;;;;2.97;2.77;;;5.90;99.90;;;;;;5065355;28;20447;-68
2021/12/01 08:42:47;;;;;;;3.50;3.20;;;5.90;99.90;;;;;;5064902;28;20480;-70
2021/12/01 08:45:15;;;;;;;3.33;2.63;;;5.90;99.90;;;;;;5069963;28;20455;-69
2021/12/01 08:47:42;;;;;;;3.43;2.90;;;5.90;99.90;;;;;;5075441;28;20479;-70
2021/12/01 08:50:10;;;;;;;5.00;3.03;;;6.00;99.90;;;;;;5071462;28;20448;-70
2021/12/01 08:52:37;;;;;;;3.30;2.73;;;6.00;99.90;;;;;;5070642;28;20525;-69
2021/12/01 08:55:05;;;;;;;2.40;2.20;;;6.00;99.90;;;;;;5070806;28;20444;-70
2021/12/01 08:57:36;;;;;;;3.13;2.40;;;6.00;99.90;;;;;;5075010;28;20527;-70
2021/12/01 09:00:04;;;;;;;2.37;2.27;;;6.00;99.90;;;;;;5077516;28;20470;-70
2021/12/01 09:02:31;;;;;;;2.43;2.10;;;6.00;99.90;;;;;;5070362;28;20474;-70
2021/12/01 09:04:58;;;;;;;2.53;2.33;;;6.00;99.90;;;;;;5070489;28;20466;-70
2021/12/01 09:07:24;;;;;;;2.70;2.50;;;6.00;99.90;;;;;;5069782;28;20451;-70
2021/12/01 09:09:51;;;;;;;2.93;2.00;;;6.00;99.90;;;;;;5070399;28;20525;-68
2021/12/01 09:12:19;;;;;;;2.17;2.07;;;6.00;99.90;;;;;;5073231;28;20464;-68
2021/12/01 09:14:47;;;;;;;2.47;2.37;;;6.00;99.90;;;;;;5069447;28;20497;-68
2021/12/01 09:17:14;;;;;;;2.53;2.33;;;6.10;99.90;;;;;;5069240;28;20456;-69
2021/12/01 09:19:41;;;;;;;2.10;2.00;;;6.10;99.90;;;;;;5073990;28;20505;-68
2021/12/01 09:22:07;;;;;;;2.30;2.20;;;6.10;99.90;;;;;;5069953;28;20467;-69
2021/12/01 09:24:35;;;;;;;3.50;1.80;;;6.10;99.90;;;;;;5069877;28;20504;-69
2021/12/01 09:27:01;;;;;;;2.10;2.00;;;6.10;99.90;;;;;;5070444;28;20513;-69
2021/12/01 09:29:29;;;;;;;2.00;1.90;;;6.20;99.90;;;;;;5070757;28;21014;-69
2021/12/01 09:31:58;;;;;;;2.10;2.00;;;6.20;99.90;;;;;;5070709;28;20447;-69
2021/12/01 09:34:25;;;;;;;2.20;2.00;;;6.20;99.90;;;;;;5069597;28;20505;-69
2021/12/01 09:36:51;;;;;;;2.73;1.83;;;6.20;99.90;;;;;;5070624;28;20942;-67
2021/12/01 09:39:18;;;;;;;2.07;1.97;;;6.20;99.90;;;;;;5074278;28;20943;-68
2021/12/01 09:41:46;;;;;;;1.90;1.80;;;6.30;99.90;;;;;;5073222;28;20451;-67
2021/12/01 09:44:12;;;;;;;3.97;2.00;;;6.30;99.90;;;;;;5068598;28;20547;-68
2021/12/01 09:46:39;;;;;;;2.43;2.23;;;6.30;99.90;;;;;;5074229;28;20451;-67
2021/12/01 09:49:08;;;;;;;2.37;2.27;;;6.30;99.90;;;;;;5077262;28;20849;-67
2021/12/01 09:51:35;;;;;;;1.83;1.73;;;6.30;99.90;;;;;;5070326;28;20459;-68
2021/12/01 09:54:02;;;;;;;2.27;1.80;;;6.30;99.90;;;;;;5073560;28;20536;-67
2021/12/01 09:56:29;;;;;;;2.03;1.93;;;6.30;99.90;;;;;;5074466;28;20458;-68
2021/12/01 09:58:56;;;;;;;2.00;1.90;;;6.40;99.90;;;;;;5073911;28;20448;-67
2021/12/01 10:01:24;;;;;;;2.53;2.10;;;6.40;99.90;;;;;;5070143;28;20486;-69
2021/12/01 10:03:52;;;;;;;2.30;2.10;;;6.40;99.90;;;;;;5059940;28;20483;-67
2021/12/01 10:06:22;;;;;;;1.70;1.60;;;6.40;99.90;;;;;;5069844;28;20443;-67
2021/12/01 10:08:50;;;;;;;2.20;1.80;;;6.40;99.90;;;;;;5086166;28;20479;-68
2021/12/01 10:11:18;;;;;;;1.90;1.80;;;6.50;99.90;;;;;;5073504;28;20535;-69
2021/12/01 10:13:47;;;;;;;2.13;2.03;;;6.50;99.90;;;;;;5077610;28;20475;-68
2021/12/01 10:16:16;;;;;;;2.17;1.97;;;6.50;99.90;;;;;;5073580;28;20505;-68
2021/12/01 10:18:44;;;;;;;1.77;1.67;;;6.60;99.90;;;;;;5078172;28;20509;-68
2021/12/01 10:21:14;;;;;;;1.47;1.37;;;6.60;99.90;;;;;;5079295;28;20461;-68
2021/12/01 10:23:47;;;;;;;1.70;1.60;;;6.60;99.90;;;;;;5073281;28;20494;-68
2021/12/01 10:26:17;;;;;;;1.77;1.67;;;6.60;99.90;;;;;;5074388;28;20541;-68
2021/12/01 10:28:46;;;;;;;6.53;1.80;;;6.70;99.90;;;;;;5074391;28;20486;-68
2021/12/01 10:31:14;;;;;;;1.93;1.83;;;6.70;99.90;;;;;;5073466;28;21015;-68
2021/12/01 10:33:42;;;;;;;1.80;1.70;;;6.70;99.90;;;;;;5070976;28;20487;-68
2021/12/01 10:36:10;;;;;;;1.60;1.50;;;6.70;99.90;;;;;;5075111;28;20444;-69
2021/12/01 10:38:40;;;;;;;1.57;1.47;;;6.80;99.90;;;;;;5079418;28;20454;-68
2021/12/01 10:41:11;;;;;;;1.60;1.50;;;6.80;99.90;;;;;;5075499;28;20454;-68
2021/12/01 10:43:44;;;;;;;3.87;2.20;;;6.80;99.90;;;;;;5075391;28;20462;-67
2021/12/01 10:46:12;;;;;;;5.23;1.80;;;6.80;99.90;;;;;;5078579;28;20446;-67
2021/12/01 10:48:41;;;;;;;1.63;1.53;;;6.90;99.90;;;;;;5078504;28;20479;-68
2021/12/01 10:51:10;;;;;;;1.83;1.73;;;6.90;99.90;;;;;;5077234;28;20486;-73
2021/12/01 10:53:37;;;;;;;1.60;1.50;;;6.90;99.90;;;;;;5074660;28;20552;-68
2021/12/01 10:56:06;;;;;;;1.53;1.43;;;7.00;99.90;;;;;;5072947;28;20479;-68
2021/12/01 10:58:36;;;;;;;2.77;1.60;;;7.00;99.90;;;;;;5071376;28;20452;-67
2021/12/01 11:01:04;;;;;;;4.70;1.70;;;7.10;99.90;;;;;;5071708;28;20610;-68
2021/12/01 11:03:32;;;;;;;1.57;1.40;;;7.10;99.90;;;;;;5076931;28;20482;-68
2021/12/01 11:06:10;;;;;;;1.53;1.43;;;7.10;99.90;;;;;;5074249;28;20900;-68
2021/12/01 11:08:38;;;;;;;2.10;1.50;;;7.20;99.90;;;;;;5073443;28;20486;-68
2021/12/01 11:11:07;;;;;;;1.60;1.50;;;7.30;99.90;;;;;;5073043;28;20458;-68
2021/12/01 11:13:37;;;;;;;2.33;1.90;;;7.20;99.90;;;;;;5072998;28;20479;-68
2021/12/01 11:16:07;;;;;;;1.60;1.50;;;7.20;99.90;;;;;;5077703;28;20448;-68
2021/12/01 11:18:35;;;;;;;1.40;1.30;;;7.30;99.90;;;;;;5078298;28;20443;-68
2021/12/01 11:21:03;;;;;;;1.50;1.40;;;7.30;99.90;;;;;;5074448;28;20462;-66
2021/12/01 11:23:32;;;;;;;1.57;1.47;;;7.40;99.90;;;;;;5077192;28;20533;-67
2021/12/01 11:26:04;;;;;;;1.50;1.40;;;7.40;99.90;;;;;;5078908;28;20505;-67
2021/12/01 11:28:32;;;;;;;2.43;1.60;;;7.40;99.90;;;;;;5076398;28;20483;-68
2021/12/01 11:31:03;;;;;;;1.40;1.30;;;7.40;99.90;;;;;;5077641;28;20462;-68
2021/12/01 11:33:31;;;;;;;1.47;1.37;;;7.40;99.90;;;;;;5053152;28;20853;-69
2021/12/01 11:36:00;;;;;;;1.50;1.40;;;7.50;99.90;;;;;;5063867;28;20551;-67
2021/12/01 11:38:27;;;;;;;1.40;1.30;;;7.50;99.90;;;;;;5071938;28;20451;-68
2021/12/01 11:40:55;;;;;;;1.37;1.27;;;7.50;99.90;;;;;;5078751;28;20455;-68
2021/12/01 11:43:25;;;;;;;1.60;1.50;;;7.60;99.90;;;;;;5073784;28;20532;-69
2021/12/01 11:45:52;;;;;;;1.30;1.20;;;7.60;99.90;;;;;;5080283;28;20520;-68
2021/12/01 11:48:24;;;;;;;1.70;1.60;;;7.70;99.90;;;;;;5077930;22;20846;-70
2021/12/01 11:50:58;;;;;;;1.60;1.43;;;7.80;99.90;;;;;;5053481;28;20542;-70
2021/12/01 11:53:32;;;;;;;2.43;1.40;;;7.80;99.90;;;;;;5049872;28;20445;-70
2021/12/01 11:56:01;;;;;;;1.60;1.50;;;7.90;99.90;;;;;;5049918;28;21027;-70
2021/12/01 11:58:46;;;;;;;1.73;1.63;;;7.90;99.90;;;;;;5034565;28;20476;-70
2021/12/01 12:01:36;;;;;;;1.63;1.53;;;7.90;99.90;;;;;;5016775;28;20453;-70
2021/12/01 12:04:32;;;;;;;1.63;1.53;;;7.90;99.90;;;;;;5024057;28;20459;-70
2021/12/01 12:07:05;;;;;;;1.40;1.30;;;7.90;99.90;;;;;;4982163;28;20511;-70
2021/12/01 12:09:33;;;;;;;1.40;1.30;;;8.00;99.90;;;;;;5029464;28;20575;-70
2021/12/01 12:12:19;;;;;;;1.47;1.37;;;8.00;99.90;;;;;;5016583;28;20481;-70
2021/12/01 12:14:51;;;;;;;1.40;1.30;;;8.10;99.90;;;;;;5028649;28;20453;-70
2021/12/01 12:17:21;;;;;;;3.83;1.30;;;8.00;99.90;;;;;;5030786;28;20548;-70
2021/12/01 12:19:59;;;;;;;1.30;1.20;;;8.00;99.90;;;;;;5014996;28;21602;-70
2021/12/01 12:22:34;;;;;;;1.70;1.60;;;8.00;99.90;;;;;;5024258;28;20466;-70
2021/12/01 12:25:02;;;;;;;1.50;1.40;;;8.00;99.90;;;;;;5022799;28;20489;-70
2021/12/01 12:27:39;;;;;;;1.50;1.40;;;8.00;99.90;;;;;;5031275;28;20476;-70
2021/12/01 12:30:10;;;;;;;7.80;1.70;;;8.00;99.90;;;;;;5021135;28;20933;-70
2021/12/01 12:32:38;;;;;;;1.87;1.70;;;8.00;99.90;;;;;;5020502;28;20458;-70
2021/12/01 12:35:09;;;;;;;1.80;1.70;;;8.00;99.90;;;;;;5018452;28;20462;-70
2021/12/01 12:37:36;;;;;;;1.50;1.40;;;8.00;99.90;;;;;;5028682;28;20527;-72
2021/12/01 12:40:09;;;;;;;1.30;1.20;;;8.10;99.90;;;;;;5026917;28;20503;-71
2021/12/01 12:42:36;;;;;;;1.40;1.30;;;8.10;99.90;;;;;;5011433;28;20447;-71
2021/12/01 12:45:04;;;;;;;1.77;1.67;;;8.10;99.90;;;;;;5027848;28;20453;-70
2021/12/01 12:47:47;;;;;;;1.83;1.73;;;8.10;99.90;;;;;;5033279;28;21010;-70
2021/12/01 12:50:17;;;;;;;1.70;1.40;;;8.10;99.90;;;;;;5012009;28;20582;-70
2021/12/01 12:52:44;;;;;;;1.93;1.40;;;8.10;99.90;;;;;;5011716;28;20502;-70
2021/12/01 12:55:41;;;;;;;1.60;1.40;;;8.00;99.90;;;;;;5011302;28;20504;-70
2021/12/01 12:58:09;;;;;;;1.60;1.50;;;8.00;99.90;;;;;;5021274;28;21038;-70
2021/12/01 13:00:38;;;;;;;1.30;1.20;;;8.10;99.90;;;;;;5026007;28;20454;-70
2021/12/01 13:03:32;;;;;;;2.03;1.40;;;8.10;99.90;;;;;;5028153;28;20632;-70
2021/12/01 13:06:02;;;;;;;2.20;1.30;;;8.10;99.90;;;;;;4973469;28;20457;-70
2021/12/01 13:08:35;;;;;;;1.50;1.40;;;8.10;99.90;;;;;;5013752;28;20524;-70